Earlington, PA (18918)

8:41 PM EST on December 24, 2014 (GMT -0500)
Woxall, Back yard | Change Station
CLOSE
Current Station
Personal Weather Station
Location: Harleysville, PA
Elevation: 430 ft
Nearby Weather Stations
Active Advisory: Special Statement

Elev 430 ft 40.31 °N, 75.44 °W | Updated 1 second ago

Overcast
Overcast
55.4 °F
Feels Like 55.4 °F
N
2.5
Wind Variable Wind from West
Gusts 2.5 mph

Today
High -- | Low -- °F
--% Chance of Precip.
Yesterday
High -- | Low -- °F
Precip. -- in
7:22 AM 4:40 PM
Waxing Crescent, 12% visible
Pressure 29.60 in
Visibility 10.0 miles
Clouds Overcast 700 ft
Dew Point 53 °F
Humidity 91%
Rainfall 0.97 in
Snow Depth Not available.
UV 0 out of 12
Pollen .10 out of 12
Air Quality Not available.
Flu Activity Not available.
METAR KPTW 250054Z AUTO 22004KT 10SM OVC007 14/13 A2960 RMK AO2 CIG 005V012 SLP022 T01390128

More Conditions Fewer Conditions

Pressure 29.60 in
Visibility 10.0 miles
Clouds Overcast 700 ft
Dew Point 53 °F
Humidity 91%
Rainfall 0.97 in
Snow Depth Not available.
UV 0 out of 12
Pollen .10 out of 12
Air Quality Not available.
Flu Activity Not available.
METAR KPTW 250054Z AUTO 22004KT 10SM OVC007 14/13 A2960 RMK AO2 CIG 005V012 SLP022 T01390128

More Conditions Fewer Conditions

10-Day Weather Forecast

Almanac

Astronomy

Dec. 24, 2014 Rise Set
Actual Time
Civil Twilight
Nautical Twilight
Astronomical Twilight
Moon
Length of Visible Light
Length of Day
Tomorrow will be .
, % of the Moon is Illuminated

Today's Extremes

State Highs State Lows

Community

WunderPhotos

Upload Photos

1,780,208 photos uploaded!

WunderBlogs® & News

Nearby

Air Quality

  Air Quality AQ Index Pollutant
Not available.

Snow Depth

Station Depth Elevation

Earthquake Activity

City Distance Mag. Time & Date
Minimum magnitude displayed is 2.5.

Coastal Water Temperatures

Place Temperature

Nearby Weather Stations